createdAt,value
2022-12-15T00:02:22.113Z,7.17
2022-12-15T00:05:08.303Z,6.67
2022-12-15T00:07:54.588Z,6.73
2022-12-15T00:10:40.732Z,6.53
2022-12-15T00:13:30.812Z,7.10
2022-12-15T00:16:17.802Z,6.90
2022-12-15T00:19:06.114Z,6.77
2022-12-15T00:21:52.891Z,6.40
2022-12-15T00:24:38.966Z,6.37
2022-12-15T00:27:24.946Z,6.60
2022-12-15T00:30:11.226Z,6.77
2022-12-15T00:32:57.755Z,5.57
2022-12-15T00:35:44.891Z,6.47
2022-12-15T00:38:32.443Z,5.73
2022-12-15T00:41:01.610Z,5.27
2022-12-15T00:43:36.354Z,6.43
2022-12-15T00:46:22.801Z,6.37
2022-12-15T00:48:51.631Z,6.50
2022-12-15T00:51:42.027Z,5.80
2022-12-15T00:54:29.143Z,5.90
2022-12-15T00:57:14.687Z,5.57
2022-12-15T01:00:00.628Z,6.00
2022-12-15T01:02:47.201Z,6.77
2022-12-15T01:05:33.620Z,5.97
2022-12-15T01:08:22.011Z,7.00
2022-12-15T01:11:08.063Z,6.00
2022-12-15T01:13:53.707Z,5.90
2022-12-15T01:16:40.146Z,5.60
2022-12-15T01:19:27.745Z,5.70
2022-12-15T01:21:56.810Z,6.57
2022-12-15T01:24:26.879Z,5.20
2022-12-15T01:26:57.688Z,5.40
2022-12-15T01:29:27.419Z,6.03
2022-12-15T01:31:55.916Z,6.17
2022-12-15T01:34:25.720Z,6.43
2022-12-15T01:36:54.606Z,6.07
2022-12-15T01:39:23.194Z,5.97
2022-12-15T01:41:52.192Z,7.03
2022-12-15T01:44:23.954Z,5.83
2022-12-15T01:46:55.599Z,6.83
2022-12-15T01:49:29.945Z,6.20
2022-12-15T01:52:01.882Z,5.40
2022-12-15T01:54:34.663Z,6.00
2022-12-15T01:57:08.826Z,5.67
2022-12-15T01:59:43.492Z,5.90
2022-12-15T02:02:14.416Z,6.03
2022-12-15T02:04:43.345Z,5.70
2022-12-15T02:07:14.979Z,5.90
2022-12-15T02:09:45.166Z,6.30
2022-12-15T02:12:28.287Z,5.93
2022-12-15T02:15:19.199Z,6.10
2022-12-15T02:17:58.785Z,5.60
2022-12-15T02:20:47.892Z,6.37
2022-12-15T02:23:58.707Z,6.13
2022-12-15T02:27:10.306Z,5.60
2022-12-15T02:30:10.847Z,6.37
2022-12-15T02:32:44.683Z,5.27
2022-12-15T02:35:21.652Z,5.80
2022-12-15T02:37:51.296Z,4.40
2022-12-15T02:40:19.775Z,5.70
2022-12-15T02:42:59.122Z,5.70
2022-12-15T02:45:35.582Z,5.50
2022-12-15T02:48:13.939Z,6.45
2022-12-15T02:51:05.985Z,5.83
2022-12-15T02:53:58.480Z,5.63
2022-12-15T02:56:33.724Z,5.10
2022-12-15T02:59:11.226Z,5.73
2022-12-15T03:01:47.331Z,5.87
2022-12-15T03:04:20.332Z,4.87
2022-12-15T03:07:00.789Z,5.30
2022-12-15T03:09:32.514Z,6.10
2022-12-15T03:12:02.059Z,5.90
2022-12-15T03:14:31.179Z,5.53
2022-12-15T03:17:02.342Z,6.30
2022-12-15T03:19:30.796Z,4.90
2022-12-15T03:22:00.152Z,5.60
2022-12-15T03:24:28.781Z,6.27
2022-12-15T03:26:58.488Z,6.60
2022-12-15T03:29:26.944Z,4.53
2022-12-15T03:31:56.550Z,5.70
2022-12-15T03:34:26.834Z,5.50
2022-12-15T03:36:57.760Z,5.40
2022-12-15T03:39:27.485Z,5.00
2022-12-15T03:41:56.512Z,6.70
2022-12-15T03:44:25.091Z,5.93
2022-12-15T03:47:01.294Z,5.77
2022-12-15T03:49:33.213Z,5.43
2022-12-15T03:52:01.874Z,5.43
2022-12-15T03:54:30.941Z,6.23
2022-12-15T03:57:00.353Z,6.13
2022-12-15T03:59:32.664Z,6.10
2022-12-15T04:02:03.466Z,5.30
2022-12-15T04:04:33.761Z,4.90
2022-12-15T04:07:02.515Z,5.20
2022-12-15T04:09:31.216Z,5.28
2022-12-15T04:12:00.524Z,4.83
2022-12-15T04:14:29.167Z,4.95
2022-12-15T04:16:58.598Z,6.03
2022-12-15T04:19:45.964Z,5.40
2022-12-15T04:22:18.114Z,4.88
2022-12-15T04:25:04.752Z,5.20
2022-12-15T04:27:51.047Z,5.13
2022-12-15T04:30:37.557Z,3.08
2022-12-15T04:33:30.909Z,4.13
2022-12-15T04:36:18.605Z,3.85
2022-12-15T04:39:07.067Z,5.32
2022-12-15T04:41:52.847Z,5.32
2022-12-15T04:44:39.390Z,5.70
2022-12-15T04:47:25.244Z,6.30
2022-12-15T04:50:11.163Z,5.07
2022-12-15T04:52:57.876Z,5.78
2022-12-15T04:55:46.036Z,5.73
2022-12-15T04:58:32.952Z,4.97
2022-12-15T05:01:18.970Z,5.87
2022-12-15T05:04:05.220Z,5.70
2022-12-15T05:06:51.558Z,5.30
2022-12-15T05:09:37.134Z,6.67
2022-12-15T05:12:27.388Z,7.10
2022-12-15T05:15:13.114Z,6.40
2022-12-15T05:17:59.720Z,6.37
2022-12-15T05:20:45.296Z,7.10
2022-12-15T05:23:37.771Z,6.80
2022-12-15T05:26:24.554Z,7.10
2022-12-15T05:29:12.797Z,7.40
2022-12-15T05:32:04.367Z,7.03
2022-12-15T05:34:38.545Z,7.23
2022-12-15T05:37:09.083Z,6.97
2022-12-15T05:39:39.333Z,6.50
2022-12-15T05:42:08.505Z,6.00
2022-12-15T05:44:40.312Z,6.40
2022-12-15T05:47:09.798Z,5.70
2022-12-15T05:49:39.424Z,5.43
2022-12-15T05:52:08.576Z,6.00
2022-12-15T05:54:37.777Z,5.70
2022-12-15T05:57:07.381Z,5.00
2022-12-15T05:59:37.437Z,5.10
2022-12-15T06:02:06.001Z,4.23
2022-12-15T06:04:36.660Z,5.33
2022-12-15T06:07:05.123Z,5.65
2022-12-15T06:09:33.530Z,5.33
2022-12-15T06:12:02.725Z,6.10
2022-12-15T06:14:32.400Z,4.97
2022-12-15T06:17:02.837Z,6.97
2022-12-15T06:19:33.664Z,5.67
2022-12-15T06:22:02.938Z,5.40
2022-12-15T06:24:31.171Z,6.70
2022-12-15T06:27:00.244Z,6.97
2022-12-15T06:29:29.435Z,6.27
2022-12-15T06:31:58.127Z,6.93
2022-12-15T06:34:28.817Z,6.40
2022-12-15T06:36:57.302Z,6.43
2022-12-15T06:39:26.146Z,6.40
2022-12-15T06:41:55.006Z,6.23
2022-12-15T06:44:23.529Z,8.33
2022-12-15T06:46:54.792Z,6.90
2022-12-15T06:49:23.362Z,7.43
2022-12-15T06:51:54.002Z,8.70
2022-12-15T06:54:22.939Z,8.20
2022-12-15T06:56:51.730Z,6.80
2022-12-15T06:59:20.353Z,7.40
2022-12-15T07:01:49.893Z,7.83
2022-12-15T07:04:19.146Z,8.37
2022-12-15T07:06:47.723Z,7.53
2022-12-15T07:09:18.775Z,6.57
2022-12-15T07:11:50.828Z,7.20
2022-12-15T07:14:20.033Z,8.13
2022-12-15T07:16:49.542Z,6.70
2022-12-15T07:19:18.867Z,7.50
2022-12-15T07:21:48.113Z,7.87
2022-12-15T07:24:18.180Z,6.93
2022-12-15T07:26:48.857Z,7.87
2022-12-15T07:29:23.226Z,7.20
2022-12-15T07:31:52.319Z,7.93
2022-12-15T07:34:20.791Z,7.70
2022-12-15T07:36:52.437Z,7.40
2022-12-15T07:39:22.978Z,7.47
2022-12-15T07:41:51.910Z,7.03
2022-12-15T07:44:21.517Z,7.73
2022-12-15T07:46:52.506Z,7.47
2022-12-15T07:49:21.961Z,7.60
2022-12-15T07:51:51.747Z,8.50
2022-12-15T07:54:21.048Z,7.83
2022-12-15T07:56:50.899Z,8.03
2022-12-15T07:59:20.135Z,8.63
2022-12-15T08:01:51.533Z,8.97
2022-12-15T08:04:22.664Z,8.30
2022-12-15T08:06:51.508Z,8.67
2022-12-15T08:09:21.408Z,8.47
2022-12-15T08:11:52.066Z,7.33
2022-12-15T08:14:21.425Z,7.63
2022-12-15T08:16:55.323Z,8.70
2022-12-15T08:19:23.939Z,8.70
2022-12-15T08:21:52.517Z,8.77
2022-12-15T08:24:21.202Z,8.60
2022-12-15T08:26:53.171Z,8.63
2022-12-15T08:29:50.000Z,7.90
2022-12-15T08:32:14.392Z,7.80
2022-12-15T08:34:44.041Z,8.23
2022-12-15T08:37:14.231Z,7.87
2022-12-15T08:39:42.553Z,7.80
2022-12-15T08:42:13.638Z,7.60
2022-12-15T08:44:42.087Z,7.03
2022-12-15T08:47:11.750Z,8.27
2022-12-15T08:49:41.438Z,7.27
2022-12-15T08:52:10.617Z,8.10
2022-12-15T08:54:39.323Z,7.67
2022-12-15T08:57:08.178Z,8.47
2022-12-15T08:59:38.297Z,7.70
2022-12-15T09:02:08.033Z,8.00
2022-12-15T09:04:38.233Z,7.60
2022-12-15T09:07:07.666Z,8.57
2022-12-15T09:09:36.466Z,8.63
2022-12-15T09:12:05.060Z,8.40
2022-12-15T09:14:33.893Z,13.83
2022-12-15T09:17:05.200Z,8.97
2022-12-15T09:19:35.252Z,8.87
2022-12-15T09:22:07.966Z,7.63
2022-12-15T09:24:36.556Z,9.00
2022-12-15T09:27:05.549Z,8.90
2022-12-15T09:29:35.869Z,8.43
2022-12-15T09:32:12.132Z,8.50
2022-12-15T09:34:43.923Z,13.77
2022-12-15T09:37:13.259Z,19.17
2022-12-15T09:39:46.652Z,11.77
2022-12-15T09:42:25.000Z,10.87
2022-12-15T09:45:01.888Z,10.43
2022-12-15T09:47:41.628Z,10.57
2022-12-15T09:50:13.482Z,11.57
2022-12-15T09:52:49.115Z,11.93
2022-12-15T09:55:24.602Z,10.93
2022-12-15T09:57:55.742Z,10.80
2022-12-15T10:00:26.435Z,12.20
2022-12-15T10:03:34.465Z,9.80
2022-12-15T10:06:18.387Z,11.70
2022-12-15T10:09:01.663Z,10.97
2022-12-15T10:11:48.554Z,10.57
2022-12-15T10:14:28.632Z,11.40
2022-12-15T10:17:06.389Z,10.17
2022-12-15T10:19:42.057Z,10.80
2022-12-15T10:22:15.224Z,10.40
2022-12-15T10:25:09.319Z,10.03
2022-12-15T10:27:46.568Z,9.40
2022-12-15T10:30:18.172Z,9.80
2022-12-15T10:32:53.717Z,10.70
2022-12-15T10:35:27.648Z,9.87
2022-12-15T10:38:00.826Z,11.00
2022-12-15T10:43:38.144Z,9.57
2022-12-15T10:46:16.357Z,10.33
2022-12-15T10:48:49.847Z,9.30
2022-12-15T10:51:28.777Z,9.73
2022-12-15T10:54:07.191Z,11.23
2022-12-15T10:56:37.334Z,9.30
2022-12-15T10:59:25.662Z,10.17
2022-12-15T11:01:55.216Z,9.20
2022-12-15T11:04:29.414Z,9.70
2022-12-15T11:07:00.422Z,8.90
2022-12-15T11:09:35.075Z,7.90
2022-12-15T11:12:37.303Z,9.33
2022-12-15T11:15:45.711Z,10.07
2022-12-15T11:18:45.571Z,5.30
2022-12-15T11:21:26.064Z,5.37
2022-12-15T11:24:05.413Z,9.77
2022-12-15T11:26:47.054Z,9.40
2022-12-15T11:29:34.460Z,6.00
2022-12-15T11:32:55.100Z,10.90
2022-12-15T11:35:34.662Z,10.70
2022-12-15T11:38:15.740Z,12.23
2022-12-15T11:40:46.055Z,10.83
2022-12-15T11:43:44.505Z,11.60
2022-12-15T11:46:22.853Z,10.80
2022-12-15T11:49:17.697Z,11.13
2022-12-15T11:51:53.377Z,10.40
2022-12-15T11:54:29.207Z,10.23
2022-12-15T11:57:37.374Z,10.33
2022-12-15T12:00:10.383Z,9.57
2022-12-15T12:03:09.412Z,10.60
2022-12-15T12:05:51.859Z,9.00
2022-12-15T12:09:05.311Z,10.43
2022-12-15T12:11:43.710Z,9.43
2022-12-15T12:14:28.257Z,10.20
2022-12-15T12:17:05.373Z,10.50
2022-12-15T12:19:40.360Z,10.93
2022-12-15T12:22:17.127Z,10.37
2022-12-15T12:24:52.732Z,10.27
2022-12-15T12:27:30.861Z,10.17
2022-12-15T12:30:05.837Z,11.07
2022-12-15T12:32:43.623Z,10.70
2022-12-15T12:35:30.945Z,11.03
2022-12-15T12:38:04.780Z,10.30
2022-12-15T12:40:47.277Z,10.90
2022-12-15T12:43:28.807Z,10.33
2022-12-15T12:46:03.805Z,10.23
2022-12-15T12:48:37.990Z,10.80
2022-12-15T12:51:19.209Z,9.33
2022-12-15T12:53:48.611Z,9.40
2022-12-15T12:56:40.919Z,5.27
2022-12-15T12:59:39.376Z,11.30
2022-12-15T13:02:50.551Z,9.07
2022-12-15T13:05:31.726Z,6.37
2022-12-15T13:08:51.773Z,10.83
2022-12-15T13:11:58.103Z,11.20
2022-12-15T13:14:38.090Z,10.60
2022-12-15T13:17:28.372Z,11.00
2022-12-15T13:20:27.754Z,11.30
2022-12-15T13:23:33.073Z,11.93
2022-12-15T13:26:21.014Z,10.23
2022-12-15T13:28:53.579Z,5.60
2022-12-15T13:31:42.151Z,4.90
2022-12-15T13:34:27.250Z,9.50
2022-12-15T13:37:03.065Z,10.57
2022-12-15T13:39:51.853Z,11.00
2022-12-15T13:42:51.274Z,9.33
2022-12-15T13:45:48.854Z,9.57
2022-12-15T13:48:39.426Z,9.43
2022-12-15T13:51:35.502Z,10.43
2022-12-15T13:54:16.783Z,8.60
2022-12-15T13:56:55.894Z,9.87
2022-12-15T13:59:39.185Z,10.10
2022-12-15T14:02:26.455Z,10.10
2022-12-15T14:05:17.628Z,9.83
2022-12-15T14:07:54.368Z,10.47
2022-12-15T14:10:26.514Z,16.60
2022-12-15T14:12:58.148Z,16.33
2022-12-15T14:15:36.645Z,11.90
2022-12-15T14:18:07.923Z,10.43
2022-12-15T14:20:42.706Z,10.30
2022-12-15T14:23:22.608Z,11.83
2022-12-15T14:25:56.018Z,9.90
2022-12-15T14:28:30.459Z,10.40
2022-12-15T14:31:06.842Z,11.77
2022-12-15T14:33:39.822Z,11.03
2022-12-15T14:36:14.223Z,10.73
2022-12-15T14:38:51.489Z,6.60
2022-12-15T14:41:24.019Z,9.43
2022-12-15T14:44:36.680Z,8.80
2022-12-15T14:46:51.097Z,10.30
2022-12-15T14:49:23.377Z,10.07
2022-12-15T14:51:54.856Z,7.63
2022-12-15T14:54:35.830Z,8.00
2022-12-15T14:57:15.875Z,7.73
2022-12-15T14:59:49.466Z,8.10
2022-12-15T15:02:25.246Z,9.10
2022-12-15T15:03:06.720Z,10.27
2022-12-15T15:05:24.535Z,8.50
2022-12-15T15:07:59.093Z,7.50
2022-12-15T15:10:31.601Z,7.83
2022-12-15T15:13:04.691Z,8.67
2022-12-15T15:15:33.783Z,8.27
2022-12-15T15:18:05.900Z,8.37
2022-12-15T15:20:36.701Z,8.13
2022-12-15T15:23:17.915Z,7.60
2022-12-15T15:25:52.821Z,9.30
2022-12-15T15:28:27.020Z,7.77
2022-12-15T15:30:57.640Z,7.97
2022-12-15T15:33:29.349Z,7.10
2022-12-15T15:36:01.114Z,7.50
2022-12-15T15:38:35.030Z,7.60
2022-12-15T15:41:17.212Z,6.00
2022-12-15T15:43:49.488Z,7.60
2022-12-15T15:46:22.801Z,6.63
2022-12-15T15:48:55.455Z,8.20
2022-12-15T15:51:27.276Z,7.40
2022-12-15T15:54:01.002Z,7.03
2022-12-15T15:56:31.520Z,6.93
2022-12-15T15:59:04.287Z,6.20
2022-12-15T16:01:34.164Z,7.40
2022-12-15T16:04:08.116Z,7.17
2022-12-15T16:06:46.671Z,7.23
2022-12-15T16:09:16.911Z,6.17
2022-12-15T16:11:46.891Z,7.00
2022-12-15T16:14:19.130Z,7.23
2022-12-15T16:16:49.156Z,6.80
2022-12-15T16:19:19.413Z,7.47
2022-12-15T16:21:52.116Z,7.53
2022-12-15T16:24:21.666Z,6.97
2022-12-15T16:26:52.678Z,6.97
2022-12-15T16:29:22.564Z,7.60
2022-12-15T16:31:51.378Z,7.07
2022-12-15T16:34:22.176Z,7.30
2022-12-15T16:36:55.434Z,7.23
2022-12-15T16:39:28.366Z,7.57
2022-12-15T16:41:57.806Z,6.80
2022-12-15T16:44:28.555Z,7.10
2022-12-15T16:46:58.980Z,7.63
2022-12-15T16:49:36.539Z,8.20
2022-12-15T16:52:10.976Z,7.30
2022-12-15T16:54:41.816Z,7.70
2022-12-15T16:57:13.309Z,7.53
2022-12-15T16:59:46.457Z,6.00
2022-12-15T17:02:27.458Z,5.97
2022-12-15T17:04:58.640Z,7.37
2022-12-15T17:07:29.580Z,7.10
2022-12-15T17:10:01.359Z,6.40
2022-12-15T17:12:31.928Z,6.57
2022-12-15T17:15:03.330Z,6.23
2022-12-15T17:17:32.357Z,6.40
2022-12-15T17:20:28.602Z,6.80
2022-12-15T17:22:57.297Z,6.83
2022-12-15T17:26:00.751Z,5.70
2022-12-15T17:28:25.457Z,7.10
2022-12-15T17:30:54.658Z,7.17
2022-12-15T17:33:26.077Z,7.23
2022-12-15T17:35:58.791Z,7.87
2022-12-15T17:38:27.891Z,6.80
2022-12-15T17:40:59.058Z,6.30
2022-12-15T17:43:35.424Z,7.30
2022-12-15T17:46:05.776Z,6.20
2022-12-15T17:48:35.040Z,7.20
2022-12-15T17:51:15.135Z,7.30
2022-12-15T17:53:45.913Z,7.00
2022-12-15T17:56:18.646Z,6.63
2022-12-15T17:58:46.923Z,6.97
2022-12-15T18:01:15.753Z,7.47
2022-12-15T18:03:45.724Z,7.63
2022-12-15T18:06:16.796Z,8.20
2022-12-15T18:08:49.174Z,6.80
2022-12-15T18:11:18.642Z,7.10
2022-12-15T18:13:48.600Z,6.70
2022-12-15T18:17:07.632Z,7.30
2022-12-15T18:19:36.671Z,7.30
2022-12-15T18:22:11.351Z,8.53
2022-12-15T18:24:40.061Z,7.60
2022-12-15T18:27:23.727Z,7.80
2022-12-15T18:29:54.408Z,6.30
2022-12-15T18:32:26.733Z,6.00
2022-12-15T18:35:23.779Z,5.53
2022-12-15T18:37:54.329Z,6.30
2022-12-15T18:40:28.329Z,7.00
2022-12-15T18:42:58.204Z,6.60
2022-12-15T18:45:28.563Z,7.17
2022-12-15T18:47:57.970Z,5.63
2022-12-15T18:50:31.044Z,4.60
2022-12-15T18:53:04.208Z,5.70
2022-12-15T18:55:34.086Z,5.97
2022-12-15T18:58:03.119Z,4.80
2022-12-15T19:00:32.695Z,3.97
2022-12-15T19:03:02.114Z,4.50
2022-12-15T19:05:37.161Z,4.70
2022-12-15T19:08:14.542Z,4.50
2022-12-15T19:10:51.184Z,5.97
2022-12-15T19:13:22.794Z,5.87
2022-12-15T19:15:52.314Z,6.73
2022-12-15T19:18:40.382Z,5.80
2022-12-15T19:21:34.091Z,5.87
2022-12-15T19:24:07.148Z,5.07
2022-12-15T19:26:36.052Z,5.00
2022-12-15T19:29:20.096Z,6.30
2022-12-15T19:31:49.210Z,6.90
2022-12-15T19:42:31.363Z,5.90
2022-12-15T19:45:02.026Z,5.93
2022-12-15T19:47:31.139Z,5.57
2022-12-15T19:49:59.851Z,6.20
2022-12-15T19:52:29.845Z,6.43
2022-12-15T19:54:58.488Z,6.10
2022-12-15T19:57:31.031Z,6.47
2022-12-15T20:00:00.723Z,6.53
2022-12-15T20:02:29.628Z,6.63
2022-12-15T20:04:58.726Z,6.20
2022-12-15T20:07:31.250Z,5.80
2022-12-15T20:10:01.696Z,5.80
2022-12-15T20:12:36.411Z,6.23
2022-12-15T20:15:16.067Z,5.30
2022-12-15T20:17:45.301Z,4.77
2022-12-15T20:20:18.750Z,4.93
2022-12-15T20:22:51.191Z,5.37
2022-12-15T20:25:22.750Z,7.30
2022-12-15T20:27:52.944Z,7.33
2022-12-15T20:30:23.705Z,4.57
2022-12-15T20:32:52.806Z,4.43
2022-12-15T20:35:23.435Z,4.70
2022-12-15T20:37:53.350Z,5.00
2022-12-15T20:40:24.234Z,4.37
2022-12-15T20:42:58.143Z,5.50
2022-12-15T20:45:28.816Z,4.90
2022-12-15T20:48:00.363Z,4.90
2022-12-15T20:50:37.801Z,6.00
2022-12-15T20:53:17.410Z,5.57
2022-12-15T20:55:46.945Z,5.53
2022-12-15T20:58:18.458Z,6.00
2022-12-15T21:00:48.503Z,5.27
2022-12-15T21:03:21.209Z,6.43
2022-12-15T21:05:51.790Z,6.50
2022-12-15T21:08:24.707Z,5.30
2022-12-15T21:10:54.966Z,6.77
2022-12-15T21:13:28.294Z,5.53
2022-12-15T21:16:01.069Z,6.07
2022-12-15T21:19:10.849Z,6.43
2022-12-15T21:21:21.419Z,6.10
2022-12-15T21:23:50.984Z,5.90
2022-12-15T21:26:22.955Z,5.87
2022-12-15T21:28:57.700Z,5.63
2022-12-15T21:31:27.508Z,6.97
2022-12-15T21:33:56.751Z,6.43
2022-12-15T21:36:25.450Z,5.17
2022-12-15T21:38:55.012Z,5.80
2022-12-15T21:41:24.532Z,6.83
2022-12-15T21:43:54.919Z,6.47
2022-12-15T21:46:28.978Z,7.63
2022-12-15T21:49:18.809Z,5.40
2022-12-15T21:51:49.966Z,6.83
2022-12-15T21:54:27.418Z,2.80
2022-12-15T21:57:03.214Z,6.70
2022-12-15T21:59:34.358Z,7.07
2022-12-15T22:02:21.276Z,5.40
2022-12-15T22:04:52.337Z,5.90
2022-12-15T22:07:21.920Z,6.87
2022-12-15T22:09:51.942Z,6.43
2022-12-15T22:12:23.946Z,6.30
2022-12-15T22:14:55.173Z,5.10
2022-12-15T22:17:25.249Z,3.50
2022-12-15T22:19:57.123Z,5.73
2022-12-15T22:22:31.598Z,5.57
2022-12-15T22:25:00.974Z,5.85
2022-12-15T22:27:33.736Z,6.23
2022-12-15T22:30:04.685Z,6.22
2022-12-15T22:32:33.779Z,5.28
2022-12-15T22:35:02.687Z,4.50
2022-12-15T22:37:31.435Z,5.60
2022-12-15T22:40:00.843Z,4.28
2022-12-15T22:42:31.955Z,3.15
2022-12-15T22:45:00.671Z,5.18
2022-12-15T22:47:35.625Z,4.80
2022-12-15T22:50:05.706Z,5.07
2022-12-15T22:52:34.328Z,5.22
2022-12-15T22:55:03.902Z,4.10
2022-12-15T22:57:33.748Z,4.60
2022-12-15T23:00:06.337Z,4.95
2022-12-15T23:02:39.567Z,3.67
2022-12-15T23:05:09.181Z,5.10
2022-12-15T23:07:38.196Z,5.28
2022-12-15T23:10:25.392Z,3.10
2022-12-15T23:12:54.702Z,3.95
2022-12-15T23:15:41.364Z,5.35
2022-12-15T23:18:16.698Z,4.75
2022-12-15T23:20:46.078Z,4.47
2022-12-15T23:23:15.776Z,5.60
2022-12-15T23:25:47.014Z,5.85
2022-12-15T23:28:16.237Z,5.15
2022-12-15T23:30:50.512Z,6.65
2022-12-15T23:33:21.243Z,5.32
2022-12-15T23:35:50.723Z,5.40
2022-12-15T23:38:21.036Z,4.43
2022-12-15T23:40:53.319Z,4.70
2022-12-15T23:43:22.450Z,4.40
2022-12-15T23:45:58.592Z,5.18
2022-12-15T23:48:31.660Z,5.22
2022-12-15T23:51:11.948Z,4.22
2022-12-15T23:53:42.199Z,4.90
2022-12-15T23:56:13.539Z,4.00
2022-12-15T23:58:45.155Z,5.28
